Time;durP1;ratioP1;P1;durP2;ratioP2;P2;SDS_P1;SDS_P2;PMS_P1;PMS_P2;Temp;Humidity;BMP_temperature;BMP_pressure;BME280_temperature;BME280_humidity;BME280_pressure;Samples;Min_cycle;Max_cycle;Signal;HPM_P1;HPM_P2
2021/06/09 00:00:37;;;;;;;34.33;30.92;;;;;;;15.23;72.70;100179.69;5029190;28;20033;-69
2021/06/09 00:03:02;;;;;;;40.45;36.25;;;;;;;15.22;72.93;100182.44;5029103;28;20026;-67
2021/06/09 00:05:27;;;;;;;43.65;36.47;;;;;;;15.14;73.22;100179.41;5029198;28;20488;-68
2021/06/09 00:07:53;;;;;;;37.97;34.00;;;;;;;15.02;73.95;100179.19;5029869;28;20037;-68
2021/06/09 00:10:19;;;;;;;33.25;29.85;;;;;;;15.04;73.44;100179.13;5029452;28;20091;-68
2021/06/09 00:12:44;;;;;;;37.35;33.17;;;;;;;15.05;73.69;100179.97;5029354;28;20037;-68
2021/06/09 00:15:13;;;;;;;39.72;35.45;;;;;;;14.99;73.64;100184.72;5032282;28;20033;-68
2021/06/09 00:17:39;;;;;;;30.02;27.15;;;;;;;15.03;73.02;100183.56;5032853;28;20049;-68
2021/06/09 00:20:07;;;;;;;35.20;30.48;;;;;;;15.04;73.15;100181.78;5033128;28;20041;-68
2021/06/09 00:22:32;;;;;;;39.53;34.22;;;;;;;14.99;73.46;100176.75;5032670;28;20037;-68
2021/06/09 00:24:58;;;;;;;41.53;35.90;;;;;;;14.95;73.64;100177.88;5033317;28;20034;-68
2021/06/09 00:27:23;;;;;;;36.00;32.47;;;;;;;14.87;73.94;100180.16;5034056;28;20037;-68
2021/06/09 00:29:49;;;;;;;37.25;33.55;;;;;;;14.87;73.67;100176.66;5033349;28;20036;-68
2021/06/09 00:32:14;;;;;;;38.70;34.55;;;;;;;14.85;73.54;100175.88;5032441;28;20185;-68
2021/06/09 00:34:39;;;;;;;36.00;31.77;;;;;;;14.84;73.82;100177.69;5032548;28;20033;-67
2021/06/09 00:37:05;;;;;;;42.95;38.53;;;;;;;14.79;73.85;100177.97;5031680;28;20030;-68
2021/06/09 00:39:30;;;;;;;44.75;40.10;;;;;;;14.75;73.61;100176.44;5031987;28;20026;-69
2021/06/09 00:41:55;;;;;;;46.00;41.10;;;;;;;14.73;74.06;100172.16;5031862;28;20045;-68
2021/06/09 00:44:21;;;;;;;44.80;39.95;;;;;;;14.65;74.29;100172.63;5033584;28;20042;-68
2021/06/09 00:46:46;;;;;;;39.38;35.33;;;;;;;14.65;73.68;100174.44;5032756;28;20033;-67
2021/06/09 00:49:12;;;;;;;41.38;37.20;;;;;;;14.67;73.68;100172.50;5032387;28;20068;-68
2021/06/09 00:51:37;;;;;;;43.47;38.83;;;;;;;14.65;74.24;100167.31;5032243;28;20036;-70
2021/06/09 00:54:04;;;;;;;34.20;30.52;;;;;;;14.67;74.14;100172.50;5031816;28;20488;-67
2021/06/09 00:56:32;;;;;;;36.72;32.85;;;;;;;14.67;73.71;100168.09;5031182;28;20382;-68
2021/06/09 00:58:58;;;;;;;44.53;39.00;;;;;;;14.65;73.91;100166.47;5031304;28;20068;-69
2021/06/09 01:01:26;;;;;;;46.10;41.25;;;;;;;14.63;73.80;100166.53;5007604;28;20089;-68
2021/06/09 01:03:52;;;;;;;44.70;39.97;;;;;;;14.55;73.99;100160.84;5032013;28;20041;-68
2021/06/09 01:06:17;;;;;;;45.50;40.70;;;;;;;14.49;74.16;100169.13;5029789;28;20029;-69
2021/06/09 01:08:43;;;;;;;41.28;36.80;;;;;;;14.45;74.58;100163.16;5031668;28;20090;-69
2021/06/09 01:11:17;;;;;;;35.65;31.95;;;;;;;14.45;74.60;100159.63;5031295;28;20588;-69
2021/06/09 01:13:44;;;;;;;39.30;35.35;;;;;;;14.43;74.62;100166.84;5031442;28;20416;-69
2021/06/09 01:16:10;;;;;;;41.15;36.92;;;;;;;14.42;74.12;100154.53;5031097;28;20442;-69
2021/06/09 01:18:36;;;;;;;42.65;38.22;;;;;;;14.35;74.55;100159.34;5030161;28;20112;-68
2021/06/09 01:21:02;;;;;;;43.75;39.25;;;;;;;14.30;74.59;100169.34;5031494;28;20053;-67
2021/06/09 01:23:28;;;;;;;48.78;44.00;;;;;;;14.23;75.17;100170.69;5030049;28;20520;-68
2021/06/09 01:25:55;;;;;;;47.28;42.30;;;;;;;14.18;75.17;100168.28;5030011;28;20033;-68
2021/06/09 01:28:21;;;;;;;43.63;38.95;;;;;;;14.19;75.23;100170.00;5031867;28;20115;-68
2021/06/09 01:30:48;;;;;;;45.42;39.97;;;;;;;14.25;74.62;100167.00;5031333;28;20087;-68
2021/06/09 01:33:14;;;;;;;39.72;35.78;;;;;;;14.26;74.72;100170.50;5031506;28;20065;-68
2021/06/09 01:35:39;;;;;;;44.55;40.03;;;;;;;14.22;74.91;100171.59;5031039;28;20036;-70
2021/06/09 01:38:06;;;;;;;46.95;42.05;;;;;;;14.20;74.99;100165.53;5031414;28;20026;-68
2021/06/09 01:40:32;;;;;;;41.70;37.30;;;;;;;14.16;75.29;100165.72;5031355;28;20144;-68
2021/06/09 01:42:58;;;;;;;43.95;39.17;;;;;;;14.15;74.95;100168.44;5031229;28;20057;-68
2021/06/09 01:45:27;;;;;;;42.78;38.20;;;;;;;14.13;75.13;100162.41;5030672;28;20030;-70
2021/06/09 01:47:53;;;;;;;41.47;37.33;;;;;;;14.11;75.17;100161.63;5031045;28;20044;-68
2021/06/09 01:50:20;;;;;;;38.58;34.65;;;;;;;14.11;74.89;100166.94;5031162;28;20049;-68
2021/06/09 01:52:47;;;;;;;42.50;38.33;;;;;;;14.12;74.65;100166.81;5031126;28;20504;-68
2021/06/09 01:55:14;;;;;;;48.33;39.40;;;;;;;14.10;75.33;100173.16;5030690;28;20112;-68
2021/06/09 01:57:40;;;;;;;47.00;42.13;;;;;;;14.10;75.18;100166.09;5030650;28;20045;-67
2021/06/09 02:00:24;;;;;;;42.65;38.15;;;;;;;14.07;75.24;100160.94;5030837;28;20030;-68
2021/06/09 02:02:50;;;;;;;48.45;43.42;;;;;;;14.05;75.22;100167.28;5031050;28;20033;-68
2021/06/09 02:05:16;;;;;;;48.53;43.42;;;;;;;14.06;75.30;100171.66;5030269;28;20091;-69
2021/06/09 02:07:44;;;;;;;47.88;42.85;;;;;;;14.03;75.16;100174.47;5029113;28;20049;-69
2021/06/09 02:10:12;;;;;;;44.55;39.95;;;;;;;14.00;75.34;100172.84;5030293;28;20037;-68
2021/06/09 02:12:41;;;;;;;54.50;48.65;;;;;;;13.98;75.45;100173.88;5030503;28;20029;-68
2021/06/09 02:15:08;;;;;;;57.40;51.60;;;;;;;13.92;75.72;100175.94;5030205;28;20547;-68
2021/06/09 02:17:34;;;;;;;51.20;46.00;;;;;;;13.92;75.88;100183.88;5030599;28;20034;-68
2021/06/09 02:20:00;;;;;;;59.90;53.53;;;;;;;13.90;75.41;100176.97;5029928;28;20041;-68
2021/06/09 02:22:27;;;;;;;59.80;53.55;;;;;;;13.87;75.75;100182.44;5030058;28;20120;-68
2021/06/09 02:24:53;;;;;;;51.90;46.35;;;;;;;13.86;75.50;100178.94;5030479;28;20035;-68
2021/06/09 02:27:18;;;;;;;55.80;50.08;;;;;;;13.85;75.55;100179.00;5029676;28;20843;-68
2021/06/09 02:29:44;;;;;;;52.45;46.88;;;;;;;13.87;75.46;100177.13;5030152;28;20037;-68
2021/06/09 02:32:09;;;;;;;55.03;49.22;;;;;;;13.82;75.32;100179.19;5030418;28;20100;-68
2021/06/09 02:34:36;;;;;;;58.42;52.42;;;;;;;13.78;75.72;100175.00;5030284;28;20034;-68
2021/06/09 02:37:03;;;;;;;50.92;44.30;;;;;;;13.71;76.04;100182.47;5029507;28;20030;-68
2021/06/09 02:39:28;;;;;;;54.10;48.05;;;;;;;13.66;76.39;100176.53;5030373;28;20041;-68
2021/06/09 02:41:53;;;;;;;56.85;50.10;;;;;;;13.60;76.73;100176.88;5030756;28;20108;-68
2021/06/09 02:44:19;;;;;;;50.05;44.85;;;;;;;13.61;76.31;100179.47;5030242;28;20029;-68
2021/06/09 02:46:49;;;;;;;51.13;45.92;;;;;;;13.65;76.03;100182.78;5030032;28;20172;-68
2021/06/09 02:49:17;;;;;;;52.95;47.38;;;;;;;13.62;76.47;100181.16;5030269;28;20362;-68
2021/06/09 02:51:47;;;;;;;52.08;46.88;;;;;;;13.64;76.05;100189.03;5032566;28;20033;-68
2021/06/09 02:54:30;;;;;;;44.92;40.10;;;;;;;13.68;75.84;100183.50;5033652;28;20132;-68
2021/06/09 02:57:01;;;;;;;45.60;39.65;;;;;;;13.68;75.92;100187.91;5032048;28;20030;-68
2021/06/09 02:59:33;;;;;;;48.55;43.45;;;;;;;13.69;75.63;100189.63;5030707;28;20038;-68
2021/06/09 03:02:06;;;;;;;45.45;40.83;;;;;;;13.68;75.61;100193.22;5031104;28;20045;-69
2021/06/09 03:04:47;;;;;;;46.10;41.20;;;;;;;13.67;76.16;100183.56;5030456;28;20040;-68
2021/06/09 03:07:25;;;;;;;43.22;38.17;;;;;;;13.69;75.91;100181.69;5031002;28;20069;-69
2021/06/09 03:10:37;;;;;;;47.72;42.47;;;;;;;13.62;76.15;100186.47;5033478;28;20493;-68
2021/06/09 03:13:09;;;;;;;54.42;48.80;;;;;;;13.59;75.95;100185.78;5026017;28;20049;-69
2021/06/09 03:16:00;;;;;;;52.20;46.75;;;;;;;13.54;76.46;100186.03;5030999;28;20041;-69
2021/06/09 03:18:36;;;;;;;53.03;47.47;;;;;;;13.49;76.34;100181.00;5030358;28;20095;-68
2021/06/09 03:21:09;;;;;;;49.75;44.55;;;;;;;13.48;76.71;100178.41;5029903;28;20125;-69
2021/06/09 03:23:54;;;;;;;51.35;45.75;;;;;;;13.47;76.23;100182.03;5030203;28;20037;-69
2021/06/09 03:26:26;;;;;;;52.10;46.42;;;;;;;13.45;76.68;100173.28;5028974;28;20037;-69
2021/06/09 03:29:16;;;;;;;51.30;45.95;;;;;;;13.44;76.21;100177.75;5031002;28;20092;-68
2021/06/09 03:31:46;;;;;;;48.50;43.33;;;;;;;13.42;76.78;100178.78;5029586;28;20120;-68
2021/06/09 03:34:22;;;;;;;50.83;45.65;;;;;;;13.40;76.58;100180.63;5029763;28;20029;-69
2021/06/09 03:36:50;;;;;;;54.72;48.88;;;;;;;13.41;76.60;100177.03;5029272;28;20033;-68
2021/06/09 03:39:20;;;;;;;50.47;45.28;;;;;;;13.38;76.85;100178.06;5029178;28;20045;-69
2021/06/09 03:41:57;;;;;;;53.67;48.05;;;;;;;13.40;76.79;100172.69;5029057;28;20044;-69
2021/06/09 03:44:35;;;;;;;51.67;46.15;;;;;;;13.40;76.66;100172.69;5029235;28;20025;-69
2021/06/09 03:47:01;;;;;;;53.60;48.08;;;;;;;13.37;76.66;100178.16;5028498;28;20034;-69
2021/06/09 03:49:28;;;;;;;58.33;52.22;;;;;;;13.30;76.34;100172.34;5030883;28;20493;-68
2021/06/09 03:51:55;;;;;;;52.58;47.13;;;;;;;13.28;76.66;100174.22;5033372;28;20033;-69
2021/06/09 03:54:22;;;;;;;59.78;53.55;;;;;;;13.37;76.97;100171.06;5033380;28;20033;-69
2021/06/09 03:56:52;;;;;;;51.50;46.00;;;;;;;13.39;76.68;100174.50;5032728;28;20558;-68
2021/06/09 03:59:20;;;;;;;54.03;48.13;;;;;;;13.39;76.61;100176.25;5033078;28;20061;-68
2021/06/09 04:01:48;;;;;;;51.20;45.65;;;;;;;13.44;76.70;100174.25;5033225;28;20366;-68
2021/06/09 04:04:18;;;;;;;48.63;43.42;;;;;;;13.46;76.72;100178.53;5032776;28;20445;-68
2021/06/09 04:06:45;;;;;;;51.40;45.97;;;;;;;13.44;76.35;100175.09;5032402;28;20129;-68
2021/06/09 04:09:17;;;;;;;52.13;46.55;;;;;;;13.44;76.83;100171.59;5032313;28;20349;-69
2021/06/09 04:11:43;;;;;;;50.15;44.95;;;;;;;13.46;76.57;100172.34;5031805;28;20041;-69
2021/06/09 04:14:10;;;;;;;47.03;42.22;;;;;;;13.50;76.74;100172.09;5032980;28;20109;-68
2021/06/09 04:16:37;;;;;;;52.30;46.72;;;;;;;13.53;76.31;100173.72;5032932;28;20029;-68
2021/06/09 04:19:05;;;;;;;52.08;46.55;;;;;;;13.56;75.78;100178.00;5032810;28;20120;-68
2021/06/09 04:21:31;;;;;;;51.70;46.10;;;;;;;13.55;76.19;100178.94;5032804;28;20029;-68
2021/06/09 04:23:57;;;;;;;55.60;49.58;;;;;;;13.53;76.71;100182.50;5032256;28;20095;-67
2021/06/09 04:26:23;;;;;;;54.55;48.05;;;;;;;13.57;76.09;100169.13;5032599;28;20033;-67
2021/06/09 04:28:50;;;;;;;56.75;49.22;;;;;;;13.60;76.33;100171.59;5032295;28;20032;-68
2021/06/09 04:31:16;;;;;;;52.30;46.78;;;;;;;13.67;75.72;100170.31;5032477;28;24713;-66
2021/06/09 04:33:46;;;;;;;51.03;45.50;;;;;;;13.72;75.68;100176.22;5032330;28;20553;-67
2021/06/09 04:36:14;;;;;;;50.88;45.53;;;;;;;13.77;75.92;100173.31;5032046;28;20041;-67
2021/06/09 04:38:40;;;;;;;56.42;49.72;;;;;;;13.80;75.66;100173.97;5032106;28;20033;-68
2021/06/09 04:41:06;;;;;;;47.42;42.45;;;;;;;13.89;75.67;100180.56;5031882;28;20396;-67
2021/06/09 04:43:31;;;;;;;48.05;43.22;;;;;;;13.96;75.17;100173.97;5031822;28;20033;-67
2021/06/09 04:45:57;;;;;;;49.47;44.17;;;;;;;14.01;75.23;100177.22;5031907;28;20059;-67
2021/06/09 04:48:22;;;;;;;47.97;43.03;;;;;;;14.06;75.36;100176.97;5032384;28;20124;-67
2021/06/09 04:50:50;;;;;;;50.08;44.67;;;;;;;14.14;74.93;100175.56;5032156;28;20060;-67
2021/06/09 04:53:16;;;;;;;49.72;44.40;;;;;;;14.23;75.22;100176.84;5032184;28;20030;-66
2021/06/09 04:55:50;;;;;;;54.40;48.60;;;;;;;14.29;74.67;100173.81;5031366;28;20044;-68
2021/06/09 04:58:18;;;;;;;50.35;43.25;;;;;;;14.39;74.35;100169.66;5032016;28;20038;-67
2021/06/09 05:00:45;;;;;;;52.38;46.78;;;;;;;14.50;74.08;100173.50;5029990;28;20056;-68
2021/06/09 05:03:11;;;;;;;49.10;44.05;;;;;;;14.63;74.29;100169.19;5030695;28;20026;-66
2021/06/09 05:05:36;;;;;;;49.88;44.55;;;;;;;14.76;73.52;100158.69;5031724;28;20039;-68
2021/06/09 05:08:02;;;;;;;45.28;40.55;;;;;;;14.94;73.20;100167.31;5031345;28;20033;-69
2021/06/09 05:10:28;;;;;;;52.50;47.13;;;;;;;15.11;72.72;100169.81;5031463;28;20037;-68
2021/06/09 05:13:06;;;;;;;52.75;47.55;;;;;;;15.37;72.04;100172.66;5031334;28;20399;-68
2021/06/09 05:15:37;;;;;;;46.33;41.67;;;;;;;15.52;71.68;100166.34;5031045;28;20030;-67
2021/06/09 05:18:08;;;;;;;47.17;42.35;;;;;;;15.70;71.45;100166.16;5031450;28;20491;-68
2021/06/09 05:20:37;;;;;;;48.15;43.03;;;;;;;15.89;70.77;100172.84;5031529;28;20544;-68
2021/06/09 05:23:08;;;;;;;42.20;37.95;;;;;;;16.10;70.48;100167.09;5031370;28;20056;-68
2021/06/09 05:25:38;;;;;;;46.20;41.47;;;;;;;16.35;69.69;100165.44;5030889;28;20116;-68
2021/06/09 05:28:07;;;;;;;45.20;40.25;;;;;;;16.63;68.67;100172.41;5030891;28;20056;-68
2021/06/09 05:30:33;;;;;;;46.13;41.70;;;;;;;16.79;68.37;100170.44;5031171;28;20048;-68
2021/06/09 05:33:00;;;;;;;45.85;41.33;;;;;;;17.01;67.85;100167.16;5030821;28;20040;-67
2021/06/09 05:35:27;;;;;;;42.95;38.65;;;;;;;17.25;66.93;100166.34;5030760;28;20033;-68
2021/06/09 05:37:52;;;;;;;45.95;41.40;;;;;;;17.53;66.33;100158.09;5031324;28;20432;-68
2021/06/09 05:40:19;;;;;;;43.80;39.50;;;;;;;17.89;65.29;100160.88;5031183;28;20142;-68
2021/06/09 05:42:47;;;;;;;45.75;41.45;;;;;;;18.24;63.84;100163.63;5030622;28;20042;-68
2021/06/09 05:45:13;;;;;;;41.75;37.65;;;;;;;18.53;63.52;100165.88;5030321;28;20033;-68
2021/06/09 05:47:45;;;;;;;36.63;33.00;;;;;;;18.73;62.79;100159.00;5030565;28;20037;-70
2021/06/09 05:50:29;;;;;;;42.33;38.17;;;;;;;18.99;62.07;100167.69;5030806;28;20047;-68
2021/06/09 05:52:59;;;;;;;36.22;32.47;;;;;;;19.24;61.60;100166.59;5030894;28;20057;-68
2021/06/09 05:55:26;;;;;;;35.25;31.55;;;;;;;19.45;60.81;100156.88;5029322;28;20036;-68
2021/06/09 05:57:54;;;;;;;37.88;34.28;;;;;;;19.65;60.50;100154.44;5030669;28;20038;-68
2021/06/09 06:00:22;;;;;;;38.25;34.22;;;;;;;19.81;60.07;100159.38;5030312;28;20509;-69
2021/06/09 06:02:48;;;;;;;36.90;33.42;;;;;;;19.97;59.81;100167.03;5030595;28;20366;-68
2021/06/09 06:05:15;;;;;;;42.03;37.85;;;;;;;20.28;58.96;100163.50;5028929;28;20036;-68
2021/06/09 06:07:41;;;;;;;40.10;35.85;;;;;;;20.58;58.16;100168.13;5030480;28;20079;-67
2021/06/09 06:10:07;;;;;;;35.47;30.25;;;;;;;20.81;58.27;100157.25;5030758;28;20117;-68
2021/06/09 06:12:35;;;;;;;27.42;24.55;;;;;;;20.95;57.64;100159.59;5030003;28;20043;-68
2021/06/09 06:15:00;;;;;;;32.40;29.15;;;;;;;21.10;57.17;100161.94;5022138;28;20104;-70
2021/06/09 06:17:26;;;;;;;36.38;32.42;;;;;;;21.39;56.12;100165.63;5030584;28;20086;-68
2021/06/09 06:19:52;;;;;;;35.63;31.95;;;;;;;21.61;55.60;100161.88;5030912;28;20040;-68
2021/06/09 06:22:18;;;;;;;33.03;29.67;;;;;;;21.80;56.07;100168.25;5028882;28;20042;-68
2021/06/09 06:24:49;;;;;;;29.77;26.58;;;;;;;21.85;55.91;100164.16;5030357;28;20044;-69
2021/06/09 06:27:16;;;;;;;28.98;25.25;;;;;;;21.98;55.61;100163.91;5029915;28;20164;-68
2021/06/09 06:29:44;;;;;;;39.38;25.33;;;;;;;22.02;54.96;100164.47;5030412;28;20037;-68
2021/06/09 06:32:12;;;;;;;34.33;30.75;;;;;;;21.99;54.25;100160.22;5030127;28;20492;-68
2021/06/09 06:34:43;;;;;;;37.20;33.53;;;;;;;22.09;54.20;100157.56;5029995;28;20032;-68
2021/06/09 06:37:09;;;;;;;36.58;32.92;;;;;;;22.28;53.79;100157.59;5029489;28;20053;-68
2021/06/09 06:39:35;;;;;;;39.22;35.38;;;;;;;22.38;50.24;100162.97;5029875;28;20040;-68
2021/06/09 06:42:01;;;;;;;38.08;34.45;;;;;;;22.55;49.84;100164.09;5029523;28;20405;-68
2021/06/09 06:44:27;;;;;;;63.97;39.00;;;;;;;22.78;48.82;100156.53;5029943;28;20109;-68
2021/06/09 06:46:53;;;;;;;34.53;31.05;;;;;;;23.08;48.11;100163.53;5029900;28;20509;-69
2021/06/09 06:49:19;;;;;;;31.92;28.67;;;;;;;23.26;48.07;100163.63;5029580;28;20030;-69
2021/06/09 06:51:52;;;;;;;39.28;35.30;;;;;;;23.36;47.61;100159.06;5029557;28;20492;-67
2021/06/09 06:54:19;;;;;;;36.10;32.63;;;;;;;23.49;47.42;100160.56;5029648;28;20033;-68
2021/06/09 06:56:49;;;;;;;35.67;32.22;;;;;;;23.53;47.08;100154.72;5029747;28;20083;-68
2021/06/09 06:59:14;;;;;;;32.65;29.35;;;;;;;23.58;46.67;100152.44;5029141;28;20033;-67
2021/06/09 07:01:41;;;;;;;30.60;27.75;;;;;;;23.63;46.24;100160.06;5029667;28;20033;-67
2021/06/09 07:04:07;;;;;;;32.42;29.15;;;;;;;23.71;46.28;100160.13;5029697;28;20030;-68
2021/06/09 07:06:33;;;;;;;34.33;29.88;;;;;;;23.85;46.53;100158.81;5029352;28;20040;-69
2021/06/09 07:09:00;;;;;;;40.05;25.15;;;;;;;23.95;46.59;100161.44;5029279;28;20528;-69
2021/06/09 07:11:26;;;;;;;32.53;29.10;;;;;;;23.87;45.82;100162.19;5029380;28;20555;-69
2021/06/09 07:13:52;;;;;;;32.30;28.42;;;;;;;24.04;45.49;100160.50;5029230;28;20136;-68
2021/06/09 07:16:19;;;;;;;27.38;24.48;;;;;;;24.08;45.00;100166.44;5029076;28;20103;-68
2021/06/09 07:18:46;;;;;;;25.77;23.02;;;;;;;24.26;44.42;100158.34;5029317;28;20109;-69
2021/06/09 07:21:17;;;;;;;31.95;22.50;;;;;;;24.49;43.79;100164.13;5029408;28;20037;-68
2021/06/09 07:23:43;;;;;;;25.38;22.88;;;;;;;24.53;43.23;100163.66;5028580;28;20468;-69
2021/06/09 07:26:10;;;;;;;22.48;20.15;;;;;;;24.72;43.16;100156.41;5027804;28;20079;-68
2021/06/09 07:28:48;;;;;;;25.38;22.77;;;;;;;24.83;42.78;100161.50;5029443;28;20029;-69
2021/06/09 07:31:16;;;;;;;27.05;24.23;;;;;;;25.27;41.64;100165.00;5029365;28;20461;-69
2021/06/09 07:33:45;;;;;;;24.63;22.00;;;;;;;25.72;40.42;100165.72;5029442;28;20041;-69
2021/06/09 07:36:12;;;;;;;26.83;24.13;;;;;;;26.19;39.57;100165.16;5028382;28;20378;-69
2021/06/09 07:38:49;;;;;;;25.60;22.95;;;;;;;26.73;38.83;100156.56;5029407;28;20033;-69
2021/06/09 07:41:16;;;;;;;25.27;22.55;;;;;;;27.17;37.67;100156.97;5029450;28;20033;-68
2021/06/09 07:43:44;;;;;;;20.45;18.35;;;;;;;27.65;36.39;100156.94;5028912;28;20041;-68
2021/06/09 07:46:15;;;;;;;23.05;20.77;;;;;;;27.91;36.15;100156.66;5029236;28;20038;-68
2021/06/09 07:48:46;;;;;;;24.13;21.40;;;;;;;28.12;35.25;100157.88;5029183;28;20033;-67
2021/06/09 07:51:14;;;;;;;23.15;21.05;;;;;;;28.11;35.42;100157.03;5029434;28;20030;-70
2021/06/09 07:53:41;;;;;;;20.55;18.52;;;;;;;28.11;34.66;100157.03;5029103;28;20038;-69
2021/06/09 07:56:11;;;;;;;18.17;16.30;;;;;;;28.11;34.77;100153.47;5028907;28;20103;-68
2021/06/09 07:58:37;;;;;;;22.67;18.73;;;;;;;28.32;34.62;100159.06;5029046;28;20041;-69
2021/06/09 08:01:03;;;;;;;18.42;16.65;;;;;;;28.30;34.37;100160.28;5029311;28;20039;-68
2021/06/09 08:03:31;;;;;;;19.02;17.02;;;;;;;28.33;34.34;100168.91;5029062;28;20037;-69
2021/06/09 08:05:57;;;;;;;20.15;18.05;;;;;;;27.68;34.99;100167.41;5029002;28;20112;-68
2021/06/09 08:08:23;;;;;;;25.25;19.05;;;;;;;27.87;35.31;100162.63;5010775;28;20044;-70
2021/06/09 08:10:49;;;;;;;22.08;17.23;;;;;;;28.08;34.65;100162.81;5029102;28;20049;-69
2021/06/09 08:13:14;;;;;;;22.80;17.95;;;;;;;28.13;34.30;100159.56;5029313;28;20508;-69
2021/06/09 08:15:40;;;;;;;21.48;15.32;;;;;;;28.30;34.25;100165.69;5028821;28;20025;-69
2021/06/09 08:18:07;;;;;;;18.27;16.40;;;;;;;28.54;34.03;100162.81;5029294;28;20080;-69
2021/06/09 08:20:42;;;;;;;19.02;17.13;;;;;;;28.76;33.05;100166.50;5029560;28;20033;-68
2021/06/09 08:23:07;;;;;;;19.27;17.45;;;;;;;28.91;33.28;100166.53;5029390;28;20091;-69
2021/06/09 08:25:33;;;;;;;16.65;15.15;;;;;;;29.14;32.91;100161.03;5029506;28;20029;-68
2021/06/09 08:27:58;;;;;;;21.45;16.85;;;;;;;29.20;32.46;100157.59;5030866;28;20029;-68
2021/06/09 08:30:27;;;;;;;21.45;16.67;;;;;;;28.81;32.97;100166.81;5033063;28;20555;-68
2021/06/09 08:32:58;;;;;;;17.02;14.65;;;;;;;28.35;33.65;100158.69;5027332;28;20511;-68
2021/06/09 08:35:26;;;;;;;16.85;15.23;;;;;;;28.49;33.30;100161.69;5029650;28;20026;-70
2021/06/09 08:37:51;;;;;;;12.77;11.48;;;;;;;28.54;33.52;100156.56;5030865;28;20497;-68
2021/06/09 08:40:17;;;;;;;15.70;12.88;;;;;;;28.52;33.41;100169.44;5032744;28;20052;-69
2021/06/09 08:42:43;;;;;;;15.20;13.70;;;;;;;28.29;33.33;100166.75;5032301;28;20044;-68
2021/06/09 08:45:13;;;;;;;15.95;14.25;;;;;;;28.30;32.93;100171.13;5032197;28;20037;-67
2021/06/09 08:47:39;;;;;;;14.05;12.63;;;;;;;28.38;32.99;100157.50;5031762;28;20059;-68
2021/06/09 08:50:09;;;;;;;22.40;15.95;;;;;;;28.43;32.83;100155.09;5032324;28;20116;-69
2021/06/09 08:52:36;;;;;;;14.80;12.55;;;;;;;28.65;32.39;100153.41;5032578;28;20554;-68
2021/06/09 08:55:01;;;;;;;13.23;11.90;;;;;;;28.97;31.99;100157.66;5032766;28;20049;-68
2021/06/09 08:57:28;;;;;;;25.25;13.07;;;;;;;28.77;31.13;100149.22;5032842;28;20104;-68
2021/06/09 08:59:54;;;;;;;12.85;11.23;;;;;;;28.38;31.96;100152.94;5037208;28;20116;-67
2021/06/09 09:02:19;;;;;;;18.67;11.80;;;;;;;27.79;33.83;100148.06;5037863;28;20517;-68
2021/06/09 09:04:45;;;;;;;18.52;14.48;;;;;;;27.52;34.46;100154.81;5036955;28;20447;-67
2021/06/09 09:07:11;;;;;;;16.80;14.93;;;;;;;27.07;35.69;100148.16;5034868;28;20037;-67
2021/06/09 09:09:37;;;;;;;15.30;13.85;;;;;;;27.43;35.17;100161.28;5033468;28;20119;-70
2021/06/09 09:12:04;;;;;;;14.10;12.68;;;;;;;28.26;34.30;100157.94;5035838;28;20029;-69
2021/06/09 09:14:29;;;;;;;16.00;14.23;;;;;;;28.59;33.37;100154.13;5033102;28;20501;-67
2021/06/09 09:17:06;;;;;;;17.27;15.48;;;;;;;28.96;32.28;100161.38;5031787;28;20037;-68
2021/06/09 09:19:35;;;;;;;18.45;14.52;;;;;;;29.09;32.42;100163.47;5031576;28;20060;-69
2021/06/09 09:22:01;;;;;;;15.38;13.85;;;;;;;29.32;31.83;100166.97;5031841;28;20099;-69
2021/06/09 09:24:39;;;;;;;17.05;12.23;;;;;;;28.86;32.61;100167.09;5031598;28;20451;-69
2021/06/09 09:27:06;;;;;;;15.18;13.60;;;;;;;28.66;32.59;100165.94;5030907;28;20033;-69
2021/06/09 09:29:31;;;;;;;16.25;14.63;;;;;;;29.32;31.55;100171.56;5030775;28;20558;-69
2021/06/09 09:32:03;;;;;;;16.13;12.45;;;;;;;29.13;31.97;100166.69;5031350;28;20054;-69
2021/06/09 09:34:46;;;;;;;15.93;11.38;;;;;;;28.95;32.11;100167.03;5031081;28;20347;-69
2021/06/09 09:37:20;;;;;;;14.18;12.65;;;;;;;29.61;31.34;100169.81;5030484;28;20053;-69
2021/06/09 09:40:05;;;;;;;16.10;14.70;;;;;;;29.38;31.88;100167.22;5030987;28;20040;-69
2021/06/09 09:42:34;;;;;;;22.23;14.77;;;;;;;29.58;30.96;100171.03;5030851;28;20044;-68
2021/06/09 09:45:20;;;;;;;15.30;12.80;;;;;;;29.50;30.71;100174.72;5031184;28;20378;-69
2021/06/09 09:48:06;;;;;;;16.52;14.75;;;;;;;28.83;32.49;100172.06;5030308;28;20036;-70
2021/06/09 09:50:56;;;;;;;13.40;12.07;;;;;;;28.32;33.55;100175.34;5029810;28;20095;-68
2021/06/09 09:53:29;;;;;;;16.80;15.00;;;;;;;27.88;33.72;100175.97;5030127;28;20041;-68
2021/06/09 09:56:11;;;;;;;15.20;13.80;;;;;;;28.58;32.50;100174.16;5030407;28;20053;-68
2021/06/09 09:58:40;;;;;;;15.43;13.80;;;;;;;29.32;31.54;100177.81;5030201;28;20029;-69
2021/06/09 10:01:21;;;;;;;12.88;11.68;;;;;;;30.17;29.79;100170.06;5030521;28;20083;-69
2021/06/09 10:03:49;;;;;;;13.88;12.57;;;;;;;29.89;30.76;100178.97;5030105;28;20091;-68
2021/06/09 10:06:30;;;;;;;14.70;13.27;;;;;;;30.63;29.45;100177.84;5030392;28;20033;-68
2021/06/09 10:08:59;;;;;;;17.05;15.50;;;;;;;31.37;28.88;100169.13;5030677;28;20041;-68
2021/06/09 10:11:27;;;;;;;16.88;15.40;;;;;;;31.54;28.05;100166.13;5031165;28;20033;-68
2021/06/09 10:13:53;;;;;;;21.10;14.85;;;;;;;31.46;28.58;100161.69;5030330;28;20108;-68
2021/06/09 10:16:34;;;;;;;17.48;13.25;;;;;;;31.01;29.40;100178.38;5030196;28;20072;-68
2021/06/09 10:19:01;;;;;;;19.73;16.27;;;;;;;29.68;31.39;100178.91;5029780;28;20497;-69
2021/06/09 10:21:28;;;;;;;20.02;17.98;;;;;;;28.69;32.69;100182.69;5030534;28;20049;-68
2021/06/09 10:24:08;;;;;;;17.17;15.35;;;;;;;27.88;34.16;100172.44;5030538;28;20116;-71
2021/06/09 10:26:33;;;;;;;18.63;15.23;;;;;;;27.52;34.75;100170.22;5029758;28;20446;-68
2021/06/09 10:29:02;;;;;;;17.15;15.40;;;;;;;27.90;34.09;100171.22;5029927;28;20132;-68
2021/06/09 10:31:29;;;;;;;17.98;16.10;;;;;;;28.70;32.15;100178.13;5030160;28;20032;-68
2021/06/09 10:33:56;;;;;;;17.75;13.25;;;;;;;28.76;32.88;100173.81;5030986;28;20049;-68
2021/06/09 10:36:22;;;;;;;18.83;15.52;;;;;;;28.07;34.20;100177.38;5028627;28;20040;-68
2021/06/09 10:38:50;;;;;;;17.30;15.55;;;;;;;28.12;33.83;100176.84;5029262;28;20113;-68
2021/06/09 10:41:16;;;;;;;14.25;12.85;;;;;;;28.10;33.06;100174.31;5028623;28;20079;-68
2021/06/09 10:43:47;;;;;;;14.02;12.68;;;;;;;28.09;33.61;100174.50;5029753;28;20537;-67
2021/06/09 10:46:19;;;;;;;16.90;13.90;;;;;;;28.53;33.06;100166.56;5028875;28;20481;-67
2021/06/09 10:48:47;;;;;;;16.02;14.07;;;;;;;29.23;31.06;100165.38;5029733;28;20107;-68
2021/06/09 10:51:13;;;;;;;12.82;10.65;;;;;;;29.56;31.04;100173.13;5027996;28;20049;-67
2021/06/09 10:53:39;;;;;;;14.00;12.60;;;;;;;29.48;30.66;100175.94;5029871;28;20040;-68
2021/06/09 10:56:04;;;;;;;16.02;12.05;;;;;;;28.72;32.44;100169.78;5029516;28;20034;-68
2021/06/09 10:58:30;;;;;;;12.27;10.68;;;;;;;28.14;33.66;100175.66;5029188;28;20424;-68
2021/06/09 11:00:57;;;;;;;14.75;11.90;;;;;;;27.75;33.95;100173.81;5029751;28;20030;-69
2021/06/09 11:03:23;;;;;;;15.80;13.80;;;;;;;27.41;34.46;100166.88;5029115;28;20084;-69
2021/06/09 11:05:50;;;;;;;14.73;12.55;;;;;;;27.67;34.13;100168.47;5029127;28;20044;-69
2021/06/09 11:08:16;;;;;;;18.17;16.35;;;;;;;27.66;33.51;100168.63;5029312;28;20047;-69
2021/06/09 11:10:45;;;;;;;17.60;15.93;;;;;;;27.57;33.54;100159.72;5028800;28;20041;-69
2021/06/09 11:13:28;;;;;;;17.70;15.13;;;;;;;27.66;33.83;100161.34;5029319;28;20034;-69
2021/06/09 11:16:10;;;;;;;14.35;12.88;;;;;;;27.52;34.27;100159.41;5029234;28;20111;-69